Airfield :
LOGIN :

Register | Disclaimer

   EN    FR    IT 

 










Legend :    VFR   Marginal VFR   IFR   Intensive IFR   Very Intensive IFR
Visi :
Ceiling :
>= 8 km
>= 3000ft
5 to 8 km
1000 to 3000 ft
1500m to 5 km
500 to 1000 ft
800 to 1500m
200 to 500 ft
< 800m
< 200 ft
Symbols :   Thunderstorms  Fog  Heavy snow  Heavy precipitations  Wind > 20 kt
SIGMETs :     Misc.  Thunderstorms  Icing  Turbulence  Mountain Waves  Volcanic Ashes







- Airport Elevation : 53 ft
- IATA code : LBC


EDHL - Lübeck

CURRENT METAR :
  • 171820Z 22004KT 9999 -RA SCT035 BKN056 18/18 Q1013

EXPIRED METARs :
  • 171750Z 24005KT 9999 -RA SCT035 BKN063 19/18 Q1014
  • 171720Z 22004KT 9999 -RA SCT038 BKN067 19/18 Q1013
  • 171650Z 21003KT 170V230 9999 -RA SCT035 BKN077 19/18 Q1014
  • 171620Z 17004KT 9999 -RA FEW031 BKN072 20/18 Q1013

TAF TAF EDHL
Valid from the 17 at 18:00 until the 17 at 21:00 UTC


171700Z 1718/1721 21003KT 9999 SCT020 BKN040
PROB40
TEMPO 1718/1721 4000 RA SCT008 BKN012
No reported NOTAMs for that airfield.



MET'MAP, your aeronautical weather chart ! - Copyright ORBIFLY December 2007 - Disclaimer

ORBIFLY MET'MAP TEAM :

Programming & Development : Alexandra Zaïnal
Concept & Development : Baudouin d'Aumeries
Co-Development & Prog : Marc-Olivier Méhu
Technical & hardware support : Manuel Goepfert

Contact : metmap@orbifly.com




SOURCES & CREDITS :

   NOAA